Wetterdaten: Woche 15.06.09 - 21.06.09 (KW25)
Datum Zeit Temperatur Luftfeuchte Luftdruck Niederschlag Wind Richtung Sonnenschein Solar Taupunkt Windchill Windben
15.06.2009 00:00 19.2 C 86 % 1017.9 hPa 0.0 l/m 1.0 km/h (0 Bft) O-SO 0.00 h 0 W/m 16.8 C 19.2 C 2.0 km/h (1 Bft)
15.06.2009 01:00 18.8 C 88 % 1018.3 hPa 0.0 l/m 0.7 km/h (0 Bft) O-SO 0.00 h 0 W/m 16.8 C 18.8 C 1.4 km/h (1 Bft)
15.06.2009 02:00 18.6 C 90 % 1018.4 hPa 0.0 l/m 2.2 km/h (1 Bft) O-SO 0.00 h 0 W/m 16.9 C 18.6 C 3.8 km/h (1 Bft)
15.06.2009 03:00 18.8 C 88 % 1018.0 hPa 0.2 l/m 2.2 km/h (1 Bft) S-SO 0.00 h 0 W/m 16.8 C 18.8 C 5.1 km/h (1 Bft)
15.06.2009 04:00 18.5 C 89 % 1017.6 hPa 0.0 l/m 1.9 km/h (1 Bft) S-SO 0.00 h 0 W/m 16.6 C 18.5 C 4.3 km/h (1 Bft)
15.06.2009 05:00 18.2 C 91 % 1017.7 hPa 0.0 l/m 0.1 km/h (0 Bft) N-NO 0.00 h 6 W/m 16.6 C 18.2 C 0.6 km/h (0 Bft)
15.06.2009 06:00 18.0 C 92 % 1017.7 hPa 0.0 l/m 0.3 km/h (0 Bft) O-NO 0.00 h 23 W/m 16.6 C 18.0 C 1.0 km/h (0 Bft)
15.06.2009 07:00 18.4 C 89 % 1017.5 hPa 0.2 l/m 3.2 km/h (1 Bft) S-SO 0.00 h 59 W/m 16.6 C 18.4 C 7.0 km/h (2 Bft)
15.06.2009 08:00 18.6 C 89 % 1017.9 hPa 1.6 l/m 0.4 km/h (0 Bft) SO 0.00 h 41 W/m 16.8 C 18.6 C 1.6 km/h (1 Bft)
15.06.2009 09:00 18.3 C 92 % 1018.2 hPa 1.6 l/m 1.3 km/h (1 Bft) S-SO 0.00 h 63 W/m 17.1 C 18.3 C 3.1 km/h (1 Bft)
15.06.2009 10:00 18.5 C 94 % 1017.5 hPa 0.4 l/m 2.0 km/h (1 Bft) S-SO 0.00 h 144 W/m 17.5 C 18.5 C 4.6 km/h (1 Bft)
15.06.2009 11:00 19.7 C 94 % 1016.8 hPa 0.0 l/m 0.9 km/h (0 Bft) S 0.17 h 305 W/m 18.6 C 19.7 C 3.0 km/h (1 Bft)
15.06.2009 12:00 20.0 C 93 % 1016.6 hPa 0.0 l/m 1.1 km/h (0 Bft) W-SW 0.00 h 210 W/m 18.8 C 20.0 C 3.3 km/h (1 Bft)
15.06.2009 13:00 19.8 C 91 % 1017.2 hPa 0.2 l/m 4.5 km/h (1 Bft) W 0.00 h 99 W/m 18.3 C 19.8 C 8.2 km/h (2 Bft)
15.06.2009 14:00 19.5 C 91 % 1016.7 hPa 0.0 l/m 1.7 km/h (1 Bft) W-SW 0.00 h 272 W/m 18.0 C 19.5 C 3.7 km/h (1 Bft)
15.06.2009 15:00 20.3 C 88 % 1015.8 hPa 0.0 l/m 1.7 km/h (1 Bft) N-NW 0.02 h 212 W/m 18.3 C 20.3 C 3.4 km/h (1 Bft)
15.06.2009 16:00 21.4 C 86 % 1014.2 hPa 0.0 l/m 3.8 km/h (1 Bft) N-NW 0.98 h 560 W/m 19.0 C 21.4 C 6.0 km/h (2 Bft)
15.06.2009 17:00 22.4 C 81 % 1012.6 hPa 0.0 l/m 3.1 km/h (1 Bft) W-NW 0.53 h 331 W/m 19.0 C 22.4 C 5.5 km/h (1 Bft)
15.06.2009 18:00 22.3 C 80 % 1012.6 hPa 0.0 l/m 4.1 km/h (1 Bft) N-NW 0.18 h 187 W/m 18.6 C 22.3 C 6.5 km/h (2 Bft)
15.06.2009 19:00 21.9 C 81 % 1013.1 hPa 0.4 l/m 4.9 km/h (1 Bft) W-NW 0.00 h 52 W/m 18.4 C 21.9 C 8.0 km/h (2 Bft)
15.06.2009 20:00 20.1 C 86 % 1013.6 hPa 0.4 l/m 13.5 km/h (3 Bft) W 0.00 h 19 W/m 17.7 C 20.1 C 20.6 km/h (4 Bft)
15.06.2009 21:00 19.0 C 87 % 1014.3 hPa 0.0 l/m 22.7 km/h (4 Bft) W 0.00 h 0 W/m 16.7 C 19.0 C 34.4 km/h (5 Bft)
15.06.2009 22:00 18.3 C 90 % 1015.5 hPa 0.4 l/m 13.3 km/h (3 Bft) W 0.00 h 0 W/m 16.7 C 18.3 C 21.5 km/h (4 Bft)
15.06.2009 23:00 17.3 C 94 % 1017.3 hPa 2.2 l/m 12.3 km/h (3 Bft) W 0.00 h 0 W/m 16.3 C 17.3 C 19.9 km/h (4 Bft)
16.06.2009 00:00 16.4 C 95 % 1017.4 hPa 0.0 l/m 1.9 km/h (1 Bft) W 0.00 h 0 W/m 15.6 C 16.4 C 3.9 km/h (1 Bft)
16.06.2009 01:00 16.1 C 96 % 1017.4 hPa 0.0 l/m 1.2 km/h (1 Bft) W 0.00 h 0 W/m 15.5 C 16.1 C 2.9 km/h (1 Bft)
16.06.2009 02:00 16.0 C 97 % 1017.5 hPa 0.0 l/m 2.3 km/h (1 Bft) W 0.00 h 0 W/m 15.6 C 16.0 C 4.6 km/h (1 Bft)
16.06.2009 03:00 15.7 C 97 % 1017.4 hPa 0.0 l/m 3.2 km/h (1 Bft) W 0.00 h 0 W/m 15.3 C 15.7 C 6.5 km/h (2 Bft)
16.06.2009 04:00 15.5 C 97 % 1017.2 hPa 0.2 l/m 2.8 km/h (1 Bft) W 0.00 h 0 W/m 15.1 C 15.5 C 5.2 km/h (1 Bft)
16.06.2009 05:00 15.4 C 97 % 1017.6 hPa 0.0 l/m 5.7 km/h (1 Bft) W 0.00 h 5 W/m 14.9 C 15.4 C 9.5 km/h (2 Bft)
16.06.2009 06:00 15.4 C 98 % 1018.1 hPa 0.2 l/m 12.8 km/h (3 Bft) W 0.08 h 45 W/m 15.0 C 15.4 C 19.8 km/h (4 Bft)
16.06.2009 07:00 15.7 C 97 % 1018.8 hPa 0.0 l/m 13.0 km/h (3 Bft) W 0.20 h 100 W/m 15.3 C 15.7 C 20.4 km/h (4 Bft)
16.06.2009 08:00 16.6 C 92 % 1019.6 hPa 0.0 l/m 11.9 km/h (2 Bft) W 0.30 h 223 W/m 15.2 C 16.6 C 19.3 km/h (3 Bft)
16.06.2009 09:00 18.5 C 78 % 1020.2 hPa 0.0 l/m 11.5 km/h (2 Bft) W 1.00 h 549 W/m 14.6 C 18.5 C 19.3 km/h (3 Bft)
16.06.2009 10:00 19.6 C 70 % 1020.9 hPa 0.0 l/m 11.7 km/h (2 Bft) W 0.75 h 582 W/m 14.0 C 19.6 C 19.4 km/h (3 Bft)
16.06.2009 11:00 20.9 C 60 % 1021.2 hPa 0.0 l/m 11.4 km/h (2 Bft) W 0.95 h 833 W/m 12.9 C 20.9 C 19.2 km/h (3 Bft)
16.06.2009 12:00 21.5 C 54 % 1021.5 hPa 0.0 l/m 12.9 km/h (3 Bft) W 0.97 h 815 W/m 11.8 C 21.5 C 20.6 km/h (4 Bft)
16.06.2009 13:00 22.2 C 50 % 1021.6 hPa 0.0 l/m 13.0 km/h (3 Bft) W 0.92 h 859 W/m 11.1 C 22.2 C 21.3 km/h (4 Bft)
16.06.2009 14:00 22.6 C 44 % 1021.7 hPa 0.0 l/m 12.5 km/h (3 Bft) W 1.00 h 819 W/m 9.8 C 22.6 C 20.6 km/h (4 Bft)
16.06.2009 15:00 23.1 C 43 % 1021.7 hPa 0.0 l/m 13.8 km/h (3 Bft) W 0.90 h 802 W/m 9.7 C 23.1 C 21.9 km/h (4 Bft)
16.06.2009 16:00 22.9 C 41 % 1021.6 hPa 0.0 l/m 13.6 km/h (3 Bft) W 0.93 h 680 W/m 9.0 C 22.9 C 21.5 km/h (4 Bft)
16.06.2009 17:00 23.1 C 41 % 1021.8 hPa 0.0 l/m 10.4 km/h (2 Bft) W 0.97 h 516 W/m 9.0 C 23.1 C 17.3 km/h (3 Bft)
16.06.2009 18:00 22.3 C 45 % 1021.8 hPa 0.0 l/m 8.9 km/h (2 Bft) W 0.97 h 313 W/m 9.6 C 22.3 C 14.3 km/h (3 Bft)
16.06.2009 19:00 21.7 C 48 % 1022.1 hPa 0.0 l/m 9.5 km/h (2 Bft) W 0.88 h 193 W/m 10.2 C 21.7 C 14.7 km/h (3 Bft)
16.06.2009 20:00 21.0 C 51 % 1022.6 hPa 0.0 l/m 4.0 km/h (1 Bft) W 0.52 h 74 W/m 10.5 C 21.0 C 6.6 km/h (2 Bft)
16.06.2009 21:00 19.5 C 58 % 1023.3 hPa 0.0 l/m 1.0 km/h (0 Bft) N 0.22 h 15 W/m 10.9 C 19.5 C 2.3 km/h (1 Bft)
16.06.2009 22:00 17.9 C 66 % 1023.9 hPa 0.0 l/m 0.4 km/h (0 Bft) NO 0.00 h 0 W/m 11.5 C 17.9 C 1.1 km/h (1 Bft)
16.06.2009 23:00 16.0 C 71 % 1024.2 hPa 0.0 l/m 1.0 km/h (0 Bft) O-SO 0.00 h 0 W/m 10.8 C 16.0 C 2.0 km/h (1 Bft)
17.06.2009 00:00 14.7 C 77 % 1024.3 hPa 0.0 l/m 1.0 km/h (0 Bft) NW 0.00 h 0 W/m 10.7 C 14.7 C 2.4 km/h (1 Bft)
17.06.2009 01:00 13.7 C 78 % 1023.9 hPa 0.0 l/m 0.4 km/h (0 Bft) NW 0.00 h 0 W/m 10.0 C 13.7 C 1.3 km/h (1 Bft)
17.06.2009 02:00 13.1 C 81 % 1023.9 hPa 0.0 l/m 0.2 km/h (0 Bft) NW 0.00 h 0 W/m 9.8 C 13.1 C 1.1 km/h (1 Bft)
17.06.2009 03:00 12.4 C 83 % 1023.8 hPa 0.0 l/m 0.1 km/h (0 Bft) NW 0.00 h 0 W/m 9.6 C 12.4 C 0.7 km/h (0 Bft)
17.06.2009 04:00 11.9 C 85 % 1023.4 hPa 0.0 l/m 0.0 km/h (0 Bft) NW 0.00 h 0 W/m 9.4 C 11.9 C 0.3 km/h (0 Bft)
17.06.2009 05:00 11.6 C 85 % 1023.4 hPa 0.0 l/m 0.3 km/h (0 Bft) NW 0.12 h 13 W/m 9.2 C 11.6 C 1.2 km/h (1 Bft)
17.06.2009 06:00 11.4 C 87 % 1023.3 hPa 0.0 l/m 0.0 km/h (0 Bft) N 0.10 h 57 W/m 9.3 C 11.4 C 0.3 km/h (0 Bft)
17.06.2009 07:00 12.9 C 87 % 1023.0 hPa 0.0 l/m 0.1 km/h (0 Bft) NW 0.83 h 185 W/m 10.8 C 12.9 C 0.6 km/h (0 Bft)
17.06.2009 08:00 16.0 C 71 % 1022.4 hPa 0.0 l/m 1.1 km/h (1 Bft) NO 0.82 h 306 W/m 10.7 C 16.0 C 3.2 km/h (1 Bft)
17.06.2009 09:00 18.4 C 64 % 1021.8 hPa 0.0 l/m 2.6 km/h (1 Bft) O-SO 1.00 h 546 W/m 11.4 C 18.4 C 5.3 km/h (1 Bft)
17.06.2009 10:00 19.6 C 59 % 1021.4 hPa 0.0 l/m 7.5 km/h (2 Bft) O-SO 1.00 h 685 W/m 11.3 C 19.6 C 12.0 km/h (2 Bft)
17.06.2009 11:00 21.4 C 55 % 1021.1 hPa 0.0 l/m 4.4 km/h (1 Bft) O-SO 1.00 h 799 W/m 11.9 C 21.4 C 7.7 km/h (2 Bft)
17.06.2009 12:00 22.5 C 52 % 1021.0 hPa 0.0 l/m 5.1 km/h (1 Bft) O-SO 1.00 h 873 W/m 12.2 C 22.5 C 8.9 km/h (2 Bft)
17.06.2009 13:00 23.7 C 48 % 1020.6 hPa 0.0 l/m 4.3 km/h (1 Bft) SO 1.00 h 900 W/m 12.1 C 23.7 C 8.1 km/h (2 Bft)
17.06.2009 14:00 24.7 C 47 % 1020.0 hPa 0.0 l/m 3.4 km/h (1 Bft) O-SO 1.00 h 876 W/m 12.4 C 24.7 C 6.3 km/h (2 Bft)
17.06.2009 15:00 25.7 C 43 % 1019.5 hPa 0.0 l/m 2.2 km/h (1 Bft) SO 1.00 h 809 W/m 12.3 C 25.7 C 4.8 km/h (1 Bft)
17.06.2009 16:00 26.5 C 39 % 1019.2 hPa 0.0 l/m 2.5 km/h (1 Bft) W-NW 1.00 h 698 W/m 11.3 C 26.5 C 4.5 km/h (1 Bft)
17.06.2009 17:00 25.7 C 37 % 1018.8 hPa 0.0 l/m 2.2 km/h (1 Bft) O-SO 1.00 h 512 W/m 9.9 C 25.7 C 4.3 km/h (1 Bft)
17.06.2009 18:00 25.6 C 38 % 1018.2 hPa 0.0 l/m 1.7 km/h (1 Bft) O-SO 1.00 h 350 W/m 10.1 C 25.6 C 3.7 km/h (1 Bft)
17.06.2009 19:00 25.2 C 39 % 1017.8 hPa 0.0 l/m 0.7 km/h (0 Bft) SO 0.55 h 162 W/m 10.3 C 25.2 C 1.8 km/h (1 Bft)
17.06.2009 20:00 23.6 C 54 % 1017.5 hPa 0.0 l/m 1.9 km/h (1 Bft) O-SO 0.55 h 73 W/m 13.5 C 23.6 C 3.0 km/h (1 Bft)
17.06.2009 21:00 20.9 C 65 % 1017.7 hPa 0.0 l/m 3.7 km/h (1 Bft) O-SO 0.17 h 14 W/m 14.0 C 20.9 C 5.0 km/h (1 Bft)
17.06.2009 22:00 18.5 C 70 % 1018.5 hPa 0.0 l/m 2.8 km/h (1 Bft) O 0.00 h 0 W/m 12.9 C 18.5 C 4.5 km/h (1 Bft)
17.06.2009 23:00 16.8 C 77 % 1018.9 hPa 0.0 l/m 2.0 km/h (1 Bft) O-SO 0.00 h 0 W/m 12.7 C 16.8 C 3.2 km/h (1 Bft)
18.06.2009 00:00 15.5 C 82 % 1019.2 hPa 0.0 l/m 1.5 km/h (1 Bft) SO 0.00 h 0 W/m 12.4 C 15.5 C 2.6 km/h (1 Bft)
18.06.2009 01:00 14.9 C 84 % 1019.5 hPa 0.0 l/m 0.6 km/h (0 Bft) SO 0.00 h 0 W/m 12.3 C 14.9 C 1.1 km/h (1 Bft)
18.06.2009 02:00 14.4 C 86 % 1019.5 hPa 0.0 l/m 0.0 km/h (0 Bft) N 0.00 h 0 W/m 12.1 C 14.4 C 0.5 km/h (0 Bft)
18.06.2009 03:00 13.8 C 89 % 1019.5 hPa 0.0 l/m 0.2 km/h (0 Bft) SO 0.00 h 0 W/m 12.0 C 13.8 C 0.5 km/h (0 Bft)
18.06.2009 04:00 13.4 C 90 % 1019.4 hPa 0.0 l/m 0.2 km/h (0 Bft) SO 0.00 h 0 W/m 11.8 C 13.4 C 0.5 km/h (0 Bft)
18.06.2009 05:00 13.0 C 92 % 1019.3 hPa 0.0 l/m 0.0 km/h (0 Bft) SO 0.03 h 12 W/m 11.7 C 13.0 C 0.3 km/h (0 Bft)
18.06.2009 06:00 13.0 C 94 % 1019.3 hPa 0.0 l/m 0.3 km/h (0 Bft) SO 0.12 h 57 W/m 12.0 C 13.0 C 0.8 km/h (0 Bft)
18.06.2009 07:00 14.6 C 94 % 1019.4 hPa 0.0 l/m 0.1 km/h (0 Bft) SO 0.45 h 148 W/m 13.6 C 14.6 C 0.6 km/h (0 Bft)
18.06.2009 08:00 17.3 C 85 % 1019.7 hPa 0.0 l/m 0.7 km/h (0 Bft) O-SO 0.72 h 290 W/m 14.8 C 17.3 C 1.7 km/h (1 Bft)
18.06.2009 09:00 21.1 C 72 % 1019.6 hPa 0.0 l/m 2.2 km/h (1 Bft) SO 0.92 h 478 W/m 15.9 C 21.1 C 5.0 km/h (1 Bft)
18.06.2009 10:00 22.7 C 67 % 1019.4 hPa 0.0 l/m 3.0 km/h (1 Bft) S-SO 0.55 h 444 W/m 16.1 C 22.7 C 6.2 km/h (2 Bft)
18.06.2009 11:00 25.6 C 60 % 1019.0 hPa 0.0 l/m 3.2 km/h (1 Bft) S-SO 1.00 h 761 W/m 17.3 C 25.6 C 6.6 km/h (2 Bft)
18.06.2009 12:00 27.6 C 57 % 1018.5 hPa 0.0 l/m 4.1 km/h (1 Bft) W-SW 1.00 h 889 W/m 18.2 C 27.6 C 7.8 km/h (2 Bft)
18.06.2009 13:00 28.3 C 54 % 1017.9 hPa 0.0 l/m 4.0 km/h (1 Bft) W-NW 0.88 h 839 W/m 17.9 C 28.3 C 7.0 km/h (2 Bft)
18.06.2009 14:00 29.1 C 52 % 1017.3 hPa 0.0 l/m 3.8 km/h (1 Bft) W-NW 1.00 h 879 W/m 18.1 C 29.1 C 6.6 km/h (2 Bft)
18.06.2009 15:00 29.8 C 49 % 1016.6 hPa 0.0 l/m 6.5 km/h (2 Bft) W 0.88 h 721 W/m 18.0 C 29.8 C 10.8 km/h (2 Bft)
18.06.2009 16:00 30.3 C 48 % 1016.0 hPa 0.0 l/m 6.4 km/h (2 Bft) W 1.00 h 671 W/m 18.0 C 30.3 C 10.5 km/h (2 Bft)
18.06.2009 17:00 29.9 C 49 % 1015.5 hPa 0.0 l/m 7.3 km/h (2 Bft) W 0.93 h 492 W/m 17.8 C 29.9 C 11.7 km/h (2 Bft)
18.06.2009 18:00 28.2 C 53 % 1015.1 hPa 0.0 l/m 7.1 km/h (2 Bft) W 0.07 h 92 W/m 17.7 C 28.2 C 11.2 km/h (2 Bft)
18.06.2009 19:00 26.6 C 59 % 1015.3 hPa 0.0 l/m 9.2 km/h (2 Bft) W-NW 0.80 h 238 W/m 17.9 C 26.6 C 14.3 km/h (3 Bft)
18.06.2009 20:00 26.1 C 59 % 1015.0 hPa 0.0 l/m 3.8 km/h (1 Bft) N-NW 0.42 h 67 W/m 17.5 C 26.1 C 6.3 km/h (2 Bft)
18.06.2009 21:00 24.1 C 67 % 1014.9 hPa 0.0 l/m 1.5 km/h (1 Bft) O-SO 0.08 h 11 W/m 17.5 C 24.1 C 2.5 km/h (1 Bft)
18.06.2009 22:00 22.4 C 74 % 1015.2 hPa 0.0 l/m 1.1 km/h (0 Bft) NO 0.00 h 0 W/m 17.7 C 22.4 C 2.1 km/h (1 Bft)
18.06.2009 23:00 21.1 C 81 % 1015.4 hPa 0.0 l/m 2.2 km/h (1 Bft) O-SO 0.00 h 0 W/m 17.7 C 21.1 C 3.1 km/h (1 Bft)
19.06.2009 00:00 20.8 C 84 % 1015.3 hPa 0.0 l/m 1.0 km/h (0 Bft) O-SO 0.00 h 0 W/m 18.0 C 20.8 C 2.0 km/h (1 Bft)
19.06.2009 01:00 20.8 C 87 % 1015.0 hPa 0.2 l/m 0.6 km/h (0 Bft) O-SO 0.00 h 0 W/m 18.6 C 20.8 C 1.6 km/h (1 Bft)
19.06.2009 02:00 20.4 C 90 % 1014.7 hPa 0.0 l/m 0.8 km/h (0 Bft) O-SO 0.00 h 0 W/m 18.7 C 20.4 C 1.9 km/h (1 Bft)
19.06.2009 03:00 20.2 C 90 % 1015.0 hPa 1.0 l/m 2.7 km/h (1 Bft) W 0.00 h 0 W/m 18.6 C 20.2 C 5.5 km/h (1 Bft)
19.06.2009 04:00 19.5 C 91 % 1014.8 hPa 0.0 l/m 2.3 km/h (1 Bft) O-SO 0.00 h 0 W/m 17.9 C 19.5 C 3.8 km/h (1 Bft)
19.06.2009 05:00 18.7 C 91 % 1015.2 hPa 0.0 l/m 1.8 km/h (1 Bft) O-SO 0.02 h 10 W/m 17.2 C 18.7 C 3.2 km/h (1 Bft)
19.06.2009 06:00 18.3 C 92 % 1015.8 hPa 0.0 l/m 0.6 km/h (0 Bft) O-SO 0.00 h 40 W/m 17.1 C 18.3 C 1.9 km/h (1 Bft)
19.06.2009 07:00 18.8 C 93 % 1016.0 hPa 0.0 l/m 0.5 km/h (0 Bft) O-SO 0.02 h 80 W/m 17.6 C 18.8 C 1.4 km/h (1 Bft)
19.06.2009 08:00 19.7 C 92 % 1015.9 hPa 0.0 l/m 0.6 km/h (0 Bft) N-NW 0.00 h 165 W/m 18.4 C 19.7 C 1.7 km/h (1 Bft)
19.06.2009 09:00 20.6 C 85 % 1016.1 hPa 0.0 l/m 3.6 km/h (1 Bft) W-SW 0.07 h 175 W/m 18.0 C 20.6 C 7.0 km/h (2 Bft)
19.06.2009 10:00 19.8 C 84 % 1016.5 hPa 0.4 l/m 4.7 km/h (1 Bft) W 0.00 h 89 W/m 17.0 C 19.8 C 7.9 km/h (2 Bft)
19.06.2009 11:00 19.6 C 88 % 1016.5 hPa 0.2 l/m 0.6 km/h (0 Bft) W-NW 0.00 h 169 W/m 17.7 C 19.6 C 1.8 km/h (1 Bft)
19.06.2009 12:00 19.8 C 86 % 1016.8 hPa 0.0 l/m 5.7 km/h (1 Bft) W 0.00 h 129 W/m 17.4 C 19.8 C 10.1 km/h (2 Bft)
19.06.2009 13:00 18.2 C 81 % 1017.3 hPa 0.2 l/m 5.7 km/h (1 Bft) SO 0.00 h 113 W/m 14.8 C 18.2 C 9.8 km/h (2 Bft)
19.06.2009 14:00 17.1 C 86 % 1017.8 hPa 0.0 l/m 6.6 km/h (2 Bft) O-SO 0.00 h 120 W/m 14.9 C 17.1 C 9.9 km/h (2 Bft)
19.06.2009 15:00 16.9 C 88 % 1018.3 hPa 0.2 l/m 3.9 km/h (1 Bft) O-SO 0.00 h 60 W/m 14.8 C 16.9 C 6.2 km/h (2 Bft)
19.06.2009 16:00 16.7 C 91 % 1018.4 hPa 0.4 l/m 4.4 km/h (1 Bft) O-SO 0.00 h 111 W/m 15.2 C 16.7 C 6.8 km/h (2 Bft)
19.06.2009 17:00 16.5 C 93 % 1018.7 hPa 2.4 l/m 2.5 km/h (1 Bft) SO 0.00 h 38 W/m 15.3 C 16.5 C 4.4 km/h (1 Bft)
19.06.2009 18:00 16.0 C 95 % 1018.9 hPa 2.8 l/m 3.4 km/h (1 Bft) SO 0.00 h 35 W/m 15.1 C 16.0 C 5.8 km/h (2 Bft)
19.06.2009 19:00 14.9 C 94 % 1019.7 hPa 3.6 l/m 5.5 km/h (1 Bft) W 0.00 h 12 W/m 14.0 C 14.9 C 9.7 km/h (2 Bft)
19.06.2009 20:00 12.5 C 91 % 1020.8 hPa 0.6 l/m 2.5 km/h (1 Bft) O 0.00 h 11 W/m 11.1 C 12.5 C 5.1 km/h (1 Bft)
19.06.2009 21:00 12.6 C 92 % 1021.5 hPa 1.2 l/m 1.0 km/h (0 Bft) O-SO 0.00 h 0 W/m 11.4 C 12.6 C 2.3 km/h (1 Bft)
19.06.2009 22:00 12.6 C 94 % 1022.1 hPa 0.2 l/m 0.4 km/h (0 Bft) O-SO 0.00 h 0 W/m 11.6 C 12.6 C 1.3 km/h (1 Bft)
19.06.2009 23:00 12.7 C 95 % 1021.9 hPa 0.0 l/m 2.1 km/h (1 Bft) O-SO 0.00 h 0 W/m 11.9 C 12.7 C 3.6 km/h (1 Bft)
20.06.2009 00:00 12.5 C 95 % 1021.7 hPa 0.0 l/m 0.3 km/h (0 Bft) SO 0.00 h 0 W/m 11.7 C 12.5 C 1.0 km/h (0 Bft)
20.06.2009 01:00 12.4 C 96 % 1021.8 hPa 0.0 l/m 1.8 km/h (1 Bft) SO 0.00 h 0 W/m 11.7 C 12.4 C 3.3 km/h (1 Bft)
20.06.2009 02:00 12.4 C 96 % 1021.6 hPa 0.0 l/m 0.0 km/h (0 Bft) SO 0.00 h 0 W/m 11.8 C 12.4 C 0.5 km/h (0 Bft)
20.06.2009 03:00 12.3 C 96 % 1021.4 hPa 0.0 l/m 0.2 km/h (0 Bft) SO 0.00 h 0 W/m 11.7 C 12.3 C 0.8 km/h (0 Bft)
20.06.2009 04:00 12.0 C 96 % 1021.0 hPa 0.0 l/m 0.5 km/h (0 Bft) SO 0.00 h 0 W/m 11.4 C 12.0 C 1.7 km/h (1 Bft)
20.06.2009 05:00 11.5 C 97 % 1020.8 hPa 0.0 l/m 0.0 km/h (0 Bft) N 0.02 h 10 W/m 11.0 C 11.5 C 0.4 km/h (0 Bft)
20.06.2009 06:00 11.5 C 97 % 1021.2 hPa 0.0 l/m 0.5 km/h (0 Bft) SO 0.00 h 35 W/m 11.0 C 11.5 C 0.9 km/h (0 Bft)
20.06.2009 07:00 12.1 C 98 % 1021.3 hPa 0.0 l/m 0.0 km/h (0 Bft) SO 0.13 h 131 W/m 11.7 C 12.1 C 0.5 km/h (0 Bft)
20.06.2009 08:00 13.6 C 96 % 1021.3 hPa 0.0 l/m 0.3 km/h (0 Bft) S-SW 0.42 h 245 W/m 13.0 C 13.6 C 1.3 km/h (1 Bft)
20.06.2009 09:00 15.2 C 86 % 1020.9 hPa 0.0 l/m 0.8 km/h (0 Bft) N 0.62 h 425 W/m 12.9 C 15.2 C 2.2 km/h (1 Bft)
20.06.2009 10:00 16.3 C 79 % 1020.6 hPa 0.0 l/m 1.8 km/h (1 Bft) W-NW 0.78 h 636 W/m 12.8 C 16.3 C 4.1 km/h (1 Bft)
20.06.2009 11:00 16.5 C 76 % 1020.6 hPa 0.0 l/m 3.4 km/h (1 Bft) N-NW 0.38 h 491 W/m 12.2 C 16.5 C 5.8 km/h (2 Bft)
20.06.2009 12:00 17.4 C 67 % 1020.2 hPa 0.0 l/m 5.7 km/h (1 Bft) W-NW 0.65 h 554 W/m 11.2 C 17.4 C 9.0 km/h (2 Bft)
20.06.2009 13:00 19.0 C 56 % 1019.8 hPa 0.0 l/m 5.0 km/h (1 Bft) N-NW 0.95 h 759 W/m 10.0 C 19.0 C 7.9 km/h (2 Bft)
20.06.2009 14:00 19.6 C 53 % 1019.3 hPa 0.0 l/m 8.3 km/h (2 Bft) N-NW 0.58 h 666 W/m 9.8 C 19.6 C 12.8 km/h (3 Bft)
20.06.2009 15:00 17.8 C 56 % 1019.2 hPa 0.0 l/m 3.5 km/h (1 Bft) N-NW 0.00 h 256 W/m 9.0 C 17.8 C 6.7 km/h (2 Bft)
20.06.2009 16:00 17.8 C 61 % 1018.9 hPa 0.0 l/m 2.9 km/h (1 Bft) N-NO 0.00 h 212 W/m 10.1 C 17.8 C 6.6 km/h (2 Bft)
20.06.2009 17:00 17.9 C 60 % 1018.9 hPa 0.0 l/m 6.4 km/h (2 Bft) N-NO 0.52 h 351 W/m 9.9 C 17.9 C 12.6 km/h (3 Bft)
20.06.2009 18:00 17.1 C 59 % 1019.0 hPa 0.0 l/m 6.4 km/h (2 Bft) N 0.00 h 128 W/m 8.9 C 17.1 C 12.1 km/h (2 Bft)
20.06.2009 19:00 15.6 C 62 % 1019.3 hPa 0.0 l/m 3.7 km/h (1 Bft) N-NO 0.00 h 50 W/m 8.4 C 15.6 C 8.0 km/h (2 Bft)
20.06.2009 20:00 14.9 C 65 % 1019.6 hPa 0.0 l/m 0.5 km/h (0 Bft) N-NW 0.00 h 28 W/m 8.4 C 14.9 C 1.7 km/h (1 Bft)
20.06.2009 21:00 14.2 C 71 % 1020.0 hPa 0.0 l/m 1.1 km/h (1 Bft) W-NW 0.00 h 7 W/m 9.0 C 14.2 C 2.4 km/h (1 Bft)
20.06.2009 22:00 13.5 C 78 % 1020.8 hPa 0.0 l/m 3.4 km/h (1 Bft) W-NW 0.00 h 0 W/m 9.7 C 13.5 C 5.9 km/h (2 Bft)
20.06.2009 23:00 12.6 C 83 % 1020.6 hPa 0.0 l/m 1.4 km/h (1 Bft) N 0.00 h 0 W/m 9.8 C 12.6 C 2.8 km/h (1 Bft)
21.06.2009 00:00 12.2 C 86 % 1020.6 hPa 0.0 l/m 0.3 km/h (0 Bft) NO 0.00 h 0 W/m 10.0 C 12.2 C 1.0 km/h (0 Bft)
21.06.2009 01:00 12.2 C 88 % 1020.5 hPa 0.0 l/m 1.8 km/h (1 Bft) NW 0.00 h 0 W/m 10.2 C 12.2 C 4.0 km/h (1 Bft)
21.06.2009 02:00 12.1 C 90 % 1020.5 hPa 0.2 l/m 1.7 km/h (1 Bft) N-NW 0.00 h 0 W/m 10.6 C 12.1 C 3.6 km/h (1 Bft)
21.06.2009 03:00 11.8 C 92 % 1020.5 hPa 0.0 l/m 0.1 km/h (0 Bft) N-NO 0.00 h 0 W/m 10.6 C 11.8 C 0.4 km/h (0 Bft)
21.06.2009 04:00 11.6 C 93 % 1020.3 hPa 0.0 l/m 1.9 km/h (1 Bft) NW 0.00 h 0 W/m 10.6 C 11.6 C 4.1 km/h (1 Bft)
21.06.2009 05:00 10.9 C 93 % 1020.6 hPa 0.0 l/m 1.8 km/h (1 Bft) N 0.03 h 10 W/m 9.8 C 10.9 C 4.3 km/h (1 Bft)
21.06.2009 06:00 10.3 C 94 % 1020.7 hPa 0.0 l/m 2.2 km/h (1 Bft) N 0.00 h 36 W/m 9.4 C 10.3 C 4.2 km/h (1 Bft)
21.06.2009 07:00 10.7 C 95 % 1021.0 hPa 0.0 l/m 0.9 km/h (0 Bft) N 0.12 h 93 W/m 10.0 C 10.7 C 2.7 km/h (1 Bft)
21.06.2009 08:00 12.6 C 92 % 1021.1 hPa 0.0 l/m 1.5 km/h (1 Bft) N 0.53 h 291 W/m 11.4 C 12.6 C 3.7 km/h (1 Bft)
21.06.2009 09:00 14.0 C 81 % 1021.2 hPa 0.0 l/m 2.0 km/h (1 Bft) NW 0.33 h 350 W/m 10.8 C 14.0 C 4.1 km/h (1 Bft)
21.06.2009 10:00 15.8 C 72 % 1020.8 hPa 0.0 l/m 3.8 km/h (1 Bft) NW 0.60 h 557 W/m 10.8 C 15.8 C 6.7 km/h (2 Bft)
21.06.2009 11:00 15.3 C 76 % 1020.9 hPa 0.0 l/m 5.8 km/h (2 Bft) N-NW 0.00 h 260 W/m 11.1 C 15.3 C 9.2 km/h (2 Bft)
21.06.2009 12:00 16.2 C 73 % 1020.7 hPa 0.0 l/m 4.7 km/h (1 Bft) N-NW 0.20 h 454 W/m 11.4 C 16.2 C 7.9 km/h (2 Bft)
21.06.2009 13:00 18.1 C 60 % 1020.1 hPa 0.0 l/m 3.6 km/h (1 Bft) N 0.38 h 605 W/m 10.1 C 18.1 C 6.6 km/h (2 Bft)
21.06.2009 14:00 17.5 C 57 % 1019.9 hPa 0.0 l/m 3.1 km/h (1 Bft) N-NW 0.12 h 397 W/m 8.8 C 17.5 C 6.5 km/h (2 Bft)
21.06.2009 15:00 17.1 C 60 % 1019.8 hPa 0.0 l/m 5.6 km/h (1 Bft) W-NW 0.00 h 305 W/m 9.3 C 17.1 C 9.1 km/h (2 Bft)
21.06.2009 16:00 17.5 C 58 % 1019.7 hPa 0.0 l/m 2.1 km/h (1 Bft) W-NW 0.22 h 326 W/m 9.1 C 17.5 C 4.1 km/h (1 Bft)
21.06.2009 17:00 17.6 C 57 % 1019.5 hPa 0.0 l/m 2.2 km/h (1 Bft) SO 0.17 h 251 W/m 9.0 C 17.6 C 4.8 km/h (1 Bft)
21.06.2009 18:00 17.2 C 63 % 1019.6 hPa 0.2 l/m 1.5 km/h (1 Bft) W 0.32 h 216 W/m 9.9 C 17.2 C 3.4 km/h (1 Bft)
21.06.2009 19:00 17.0 C 65 % 1019.5 hPa 0.0 l/m 2.4 km/h (1 Bft) S-SO 0.82 h 210 W/m 10.5 C 17.0 C 5.5 km/h (1 Bft)
21.06.2009 20:00 15.7 C 70 % 1019.5 hPa 0.0 l/m 1.8 km/h (1 Bft) S-SO 0.00 h 29 W/m 10.2 C 15.7 C 4.1 km/h (1 Bft)
21.06.2009 21:00 14.6 C 74 % 1019.6 hPa 0.0 l/m 0.9 km/h (0 Bft) S-SO 0.00 h 10 W/m 9.9 C 14.6 C 2.9 km/h (1 Bft)
21.06.2009 22:00 13.8 C 77 % 1020.0 hPa 0.0 l/m 0.8 km/h (0 Bft) SO 0.00 h 0 W/m 9.9 C 13.8 C 2.1 km/h (1 Bft)
21.06.2009 23:00 13.4 C 81 % 1020.2 hPa 0.0 l/m 0.2 km/h (0 Bft) SO 0.00 h 0 W/m 10.3 C 13.4 C 0.9 km/h (0 Bft)
Min-Datum _ 21.06.09 16.06.09 15.06.09 - 15.06.09 - - - 16.06.09 21.06.09 15.06.09
_ Min-Zeit 07:00 16:52 18:15 - 00:16 - - - 16:52 06:14 00:25
Minimum _ 10.2 C 33 % 1012.3 hPa - 0.0 km/h (0 Bft) - - - 5.8 C 10.3 C 0.0 km/h (0 Bft)
Max-Datum _ 18.06.09 16.06.09 16.06.09 19.06.09 15.06.09 - 15.06.09 20.06.09 18.06.09 18.06.09 15.06.09
_ Max-Zeit 16:44 06:04 23:45 19:01 21:23 - 11:18 13:31 12:46 16:44 21:42
Maximum _ 30.9 C 98 % 1024.3 hPa 3.6 l/m 31.3 km/h
W (5 Bft)
- 0.02 h 1331 W/m 19.8 C 30.9 C 48.7 km/h
W (6 Bft)
Durchschnitt _ 18.0 C 77 % 1019.1 hPa #21.8 l/m 3.5 km/h (1 Bft) W #46:24 h 305 W/m 13.4 C 18.0 C 6.2 km/h (2 Bft)
© Kaiko 2009